sensor_id;sensor_type;location;lat;lon;timestamp;P1;durP1;ratioP1;P2;durP2;ratioP2
39256;SDS011;67272;48.066;11.038;2023-04-16T00:02:24;5.73;;;4.80;;
39256;SDS011;67272;48.066;11.038;2023-04-16T00:04:51;6.30;;;4.90;;
39256;SDS011;67272;48.066;11.038;2023-04-16T00:07:18;5.93;;;4.83;;
39256;SDS011;67272;48.066;11.038;2023-04-16T00:09:44;5.30;;;4.33;;
39256;SDS011;67272;48.066;11.038;2023-04-16T00:14:59;5.27;;;4.13;;
39256;SDS011;67272;48.066;11.038;2023-04-16T00:17:25;4.57;;;3.97;;
39256;SDS011;67272;48.066;11.038;2023-04-16T00:19:54;5.33;;;4.20;;
39256;SDS011;67272;48.066;11.038;2023-04-16T00:22:21;3.97;;;3.47;;
39256;SDS011;67272;48.066;11.038;2023-04-16T00:24:47;3.90;;;3.50;;
39256;SDS011;67272;48.066;11.038;2023-04-16T00:27:17;4.87;;;3.47;;
39256;SDS011;67272;48.066;11.038;2023-04-16T00:29:44;3.10;;;2.73;;
39256;SDS011;67272;48.066;11.038;2023-04-16T00:32:11;2.87;;;2.57;;
39256;SDS011;67272;48.066;11.038;2023-04-16T00:34:40;3.00;;;2.70;;
39256;SDS011;67272;48.066;11.038;2023-04-16T00:37:06;3.43;;;2.63;;
39256;SDS011;67272;48.066;11.038;2023-04-16T00:39:32;3.37;;;2.90;;
39256;SDS011;67272;48.066;11.038;2023-04-16T00:41:59;4.00;;;3.43;;
39256;SDS011;67272;48.066;11.038;2023-04-16T00:44:26;4.23;;;3.77;;
39256;SDS011;67272;48.066;11.038;2023-04-16T00:46:53;4.10;;;3.57;;
39256;SDS011;67272;48.066;11.038;2023-04-16T00:49:23;4.93;;;4.07;;
39256;SDS011;67272;48.066;11.038;2023-04-16T00:51:51;5.33;;;3.97;;
39256;SDS011;67272;48.066;11.038;2023-04-16T00:54:20;4.03;;;3.60;;
39256;SDS011;67272;48.066;11.038;2023-04-16T00:56:57;4.70;;;4.17;;
39256;SDS011;67272;48.066;11.038;2023-04-16T00:59:24;5.07;;;4.27;;
39256;SDS011;67272;48.066;11.038;2023-04-16T01:01:57;5.33;;;3.73;;
39256;SDS011;67272;48.066;11.038;2023-04-16T01:04:24;6.23;;;4.83;;
39256;SDS011;67272;48.066;11.038;2023-04-16T01:06:50;6.23;;;4.67;;
39256;SDS011;67272;48.066;11.038;2023-04-16T01:09:16;5.00;;;4.37;;
39256;SDS011;67272;48.066;11.038;2023-04-16T01:11:42;4.57;;;4.07;;
39256;SDS011;67272;48.066;11.038;2023-04-16T01:14:08;5.03;;;4.53;;
39256;SDS011;67272;48.066;11.038;2023-04-16T01:16:35;5.90;;;4.03;;
39256;SDS011;67272;48.066;11.038;2023-04-16T01:19:03;5.23;;;3.60;;
39256;SDS011;67272;48.066;11.038;2023-04-16T01:21:30;4.67;;;3.73;;
39256;SDS011;67272;48.066;11.038;2023-04-16T01:23:56;4.77;;;3.57;;
39256;SDS011;67272;48.066;11.038;2023-04-16T01:26:32;4.07;;;3.53;;
39256;SDS011;67272;48.066;11.038;2023-04-16T01:29:04;3.17;;;2.70;;
39256;SDS011;67272;48.066;11.038;2023-04-16T01:31:31;4.17;;;3.50;;
39256;SDS011;67272;48.066;11.038;2023-04-16T01:34:08;5.47;;;3.47;;
39256;SDS011;67272;48.066;11.038;2023-04-16T01:36:35;3.93;;;3.53;;
39256;SDS011;67272;48.066;11.038;2023-04-16T01:39:01;3.63;;;3.33;;
39256;SDS011;67272;48.066;11.038;2023-04-16T01:41:30;4.30;;;3.50;;
39256;SDS011;67272;48.066;11.038;2023-04-16T01:43:56;3.03;;;2.70;;
39256;SDS011;67272;48.066;11.038;2023-04-16T01:46:30;3.47;;;3.17;;
39256;SDS011;67272;48.066;11.038;2023-04-16T01:48:57;4.30;;;3.20;;
39256;SDS011;67272;48.066;11.038;2023-04-16T01:54:28;3.40;;;3.10;;
39256;SDS011;67272;48.066;11.038;2023-04-16T01:56:54;4.00;;;3.27;;
39256;SDS011;67272;48.066;11.038;2023-04-16T01:59:21;3.97;;;3.57;;
39256;SDS011;67272;48.066;11.038;2023-04-16T02:01:47;3.77;;;3.30;;
39256;SDS011;67272;48.066;11.038;2023-04-16T02:04:17;3.23;;;2.90;;
39256;SDS011;67272;48.066;11.038;2023-04-16T02:06:46;3.60;;;3.30;;
39256;SDS011;67272;48.066;11.038;2023-04-16T02:09:16;3.70;;;3.30;;
39256;SDS011;67272;48.066;11.038;2023-04-16T02:11:43;2.83;;;2.53;;
39256;SDS011;67272;48.066;11.038;2023-04-16T02:14:09;4.30;;;3.60;;
39256;SDS011;67272;48.066;11.038;2023-04-16T02:16:35;5.87;;;3.93;;
39256;SDS011;67272;48.066;11.038;2023-04-16T02:19:18;5.27;;;4.27;;
39256;SDS011;67272;48.066;11.038;2023-04-16T02:21:44;5.40;;;4.20;;
39256;SDS011;67272;48.066;11.038;2023-04-16T02:24:11;5.10;;;3.97;;
39256;SDS011;67272;48.066;11.038;2023-04-16T02:26:37;5.07;;;4.53;;
39256;SDS011;67272;48.066;11.038;2023-04-16T02:29:10;4.90;;;4.20;;
39256;SDS011;67272;48.066;11.038;2023-04-16T02:31:41;4.97;;;3.90;;
39256;SDS011;67272;48.066;11.038;2023-04-16T02:34:09;4.30;;;3.73;;
39256;SDS011;67272;48.066;11.038;2023-04-16T02:36:42;4.50;;;4.10;;
39256;SDS011;67272;48.066;11.038;2023-04-16T02:39:08;4.20;;;3.80;;
39256;SDS011;67272;48.066;11.038;2023-04-16T02:41:38;5.20;;;4.40;;
39256;SDS011;67272;48.066;11.038;2023-04-16T02:44:21;4.40;;;4.00;;
39256;SDS011;67272;48.066;11.038;2023-04-16T02:46:48;4.37;;;3.60;;
39256;SDS011;67272;48.066;11.038;2023-04-16T02:49:14;4.37;;;3.97;;
39256;SDS011;67272;48.066;11.038;2023-04-16T02:51:47;4.43;;;3.87;;
39256;SDS011;67272;48.066;11.038;2023-04-16T02:54:13;4.70;;;4.20;;
39256;SDS011;67272;48.066;11.038;2023-04-16T02:56:43;5.70;;;4.37;;
39256;SDS011;67272;48.066;11.038;2023-04-16T02:59:09;5.88;;;5.28;;
39256;SDS011;67272;48.066;11.038;2023-04-16T03:01:45;5.10;;;4.53;;
39256;SDS011;67272;48.066;11.038;2023-04-16T03:04:11;5.53;;;4.70;;
39256;SDS011;67272;48.066;11.038;2023-04-16T03:06:41;5.17;;;3.83;;
39256;SDS011;67272;48.066;11.038;2023-04-16T03:09:07;4.33;;;3.57;;
39256;SDS011;67272;48.066;11.038;2023-04-16T03:11:46;5.07;;;4.37;;
39256;SDS011;67272;48.066;11.038;2023-04-16T03:14:12;4.73;;;4.03;;
39256;SDS011;67272;48.066;11.038;2023-04-16T03:16:39;3.80;;;3.40;;
39256;SDS011;67272;48.066;11.038;2023-04-16T03:19:06;4.80;;;4.10;;
39256;SDS011;67272;48.066;11.038;2023-04-16T03:21:32;3.93;;;3.57;;
39256;SDS011;67272;48.066;11.038;2023-04-16T03:23:58;4.70;;;3.90;;
39256;SDS011;67272;48.066;11.038;2023-04-16T03:26:34;4.93;;;4.20;;
39256;SDS011;67272;48.066;11.038;2023-04-16T03:29:01;4.00;;;3.63;;
39256;SDS011;67272;48.066;11.038;2023-04-16T03:31:29;4.03;;;3.60;;
39256;SDS011;67272;48.066;11.038;2023-04-16T03:33:57;4.20;;;3.60;;
39256;SDS011;67272;48.066;11.038;2023-04-16T03:36:24;4.03;;;3.40;;
39256;SDS011;67272;48.066;11.038;2023-04-16T03:38:51;4.13;;;3.40;;
39256;SDS011;67272;48.066;11.038;2023-04-16T03:41:21;4.07;;;3.60;;
39256;SDS011;67272;48.066;11.038;2023-04-16T03:43:47;3.83;;;3.47;;
39256;SDS011;67272;48.066;11.038;2023-04-16T03:46:14;3.03;;;2.73;;
39256;SDS011;67272;48.066;11.038;2023-04-16T03:48:47;3.83;;;3.20;;
39256;SDS011;67272;48.066;11.038;2023-04-16T03:51:17;4.40;;;3.10;;
39256;SDS011;67272;48.066;11.038;2023-04-16T03:53:46;2.93;;;2.63;;
39256;SDS011;67272;48.066;11.038;2023-04-16T03:56:13;3.40;;;3.00;;
39256;SDS011;67272;48.066;11.038;2023-04-16T03:58:39;3.83;;;3.00;;
39256;SDS011;67272;48.066;11.038;2023-04-16T04:01:06;3.63;;;3.20;;
39256;SDS011;67272;48.066;11.038;2023-04-16T04:03:34;3.43;;;2.93;;
39256;SDS011;67272;48.066;11.038;2023-04-16T04:06:00;4.27;;;3.53;;
39256;SDS011;67272;48.066;11.038;2023-04-16T04:08:28;3.70;;;3.10;;
39256;SDS011;67272;48.066;11.038;2023-04-16T04:10:54;3.70;;;3.30;;
39256;SDS011;67272;48.066;11.038;2023-04-16T04:13:22;3.90;;;3.23;;
39256;SDS011;67272;48.066;11.038;2023-04-16T04:15:49;3.80;;;3.30;;
39256;SDS011;67272;48.066;11.038;2023-04-16T04:18:19;3.30;;;2.97;;
39256;SDS011;67272;48.066;11.038;2023-04-16T04:20:45;3.80;;;3.23;;
39256;SDS011;67272;48.066;11.038;2023-04-16T04:23:14;4.80;;;3.87;;
39256;SDS011;67272;48.066;11.038;2023-04-16T04:25:40;3.37;;;3.07;;
39256;SDS011;67272;48.066;11.038;2023-04-16T04:28:10;3.80;;;3.40;;
39256;SDS011;67272;48.066;11.038;2023-04-16T04:30:37;3.10;;;2.73;;
39256;SDS011;67272;48.066;11.038;2023-04-16T04:33:04;3.33;;;3.03;;
39256;SDS011;67272;48.066;11.038;2023-04-16T04:35:30;3.10;;;2.80;;
39256;SDS011;67272;48.066;11.038;2023-04-16T04:37:58;4.10;;;3.10;;
39256;SDS011;67272;48.066;11.038;2023-04-16T04:40:26;3.77;;;3.30;;
39256;SDS011;67272;48.066;11.038;2023-04-16T04:42:55;3.43;;;3.13;;
39256;SDS011;67272;48.066;11.038;2023-04-16T04:45:22;3.00;;;2.70;;
39256;SDS011;67272;48.066;11.038;2023-04-16T04:47:52;3.27;;;2.70;;
39256;SDS011;67272;48.066;11.038;2023-04-16T04:50:19;2.50;;;2.30;;
39256;SDS011;67272;48.066;11.038;2023-04-16T04:52:46;3.13;;;2.50;;
39256;SDS011;67272;48.066;11.038;2023-04-16T04:55:12;2.90;;;2.60;;
39256;SDS011;67272;48.066;11.038;2023-04-16T04:57:43;2.37;;;2.17;;
39256;SDS011;67272;48.066;11.038;2023-04-16T05:00:12;2.60;;;2.40;;
39256;SDS011;67272;48.066;11.038;2023-04-16T05:02:50;2.37;;;2.00;;
39256;SDS011;67272;48.066;11.038;2023-04-16T05:05:16;2.40;;;2.20;;
39256;SDS011;67272;48.066;11.038;2023-04-16T05:07:43;2.67;;;2.40;;
39256;SDS011;67272;48.066;11.038;2023-04-16T05:10:09;2.70;;;2.33;;
39256;SDS011;67272;48.066;11.038;2023-04-16T05:12:35;2.50;;;2.30;;
39256;SDS011;67272;48.066;11.038;2023-04-16T05:15:01;1.90;;;1.80;;
39256;SDS011;67272;48.066;11.038;2023-04-16T05:17:27;2.00;;;1.80;;
39256;SDS011;67272;48.066;11.038;2023-04-16T05:19:53;2.40;;;2.20;;
39256;SDS011;67272;48.066;11.038;2023-04-16T05:22:20;1.90;;;1.70;;
39256;SDS011;67272;48.066;11.038;2023-04-16T05:24:46;1.57;;;1.47;;
39256;SDS011;67272;48.066;11.038;2023-04-16T05:27:12;1.90;;;1.80;;
39256;SDS011;67272;48.066;11.038;2023-04-16T05:29:44;1.90;;;1.63;;
39256;SDS011;67272;48.066;11.038;2023-04-16T05:32:10;1.60;;;1.40;;
39256;SDS011;67272;48.066;11.038;2023-04-16T05:34:36;1.70;;;1.60;;
39256;SDS011;67272;48.066;11.038;2023-04-16T05:37:02;1.40;;;1.30;;
39256;SDS011;67272;48.066;11.038;2023-04-16T05:39:28;0.80;;;0.80;;
39256;SDS011;67272;48.066;11.038;2023-04-16T05:41:54;1.30;;;1.20;;
39256;SDS011;67272;48.066;11.038;2023-04-16T05:44:21;1.23;;;1.13;;
39256;SDS011;67272;48.066;11.038;2023-04-16T05:46:47;1.20;;;1.10;;
39256;SDS011;67272;48.066;11.038;2023-04-16T05:49:13;1.47;;;1.30;;
39256;SDS011;67272;48.066;11.038;2023-04-16T05:51:43;1.10;;;1.00;;
39256;SDS011;67272;48.066;11.038;2023-04-16T05:57:00;1.10;;;1.00;;
39256;SDS011;67272;48.066;11.038;2023-04-16T05:59:26;0.67;;;0.67;;
39256;SDS011;67272;48.066;11.038;2023-04-16T06:01:53;0.67;;;0.67;;
39256;SDS011;67272;48.066;11.038;2023-04-16T06:04:19;0.80;;;0.80;;
39256;SDS011;67272;48.066;11.038;2023-04-16T06:06:45;0.60;;;0.60;;
39256;SDS011;67272;48.066;11.038;2023-04-16T06:09:11;0.60;;;0.60;;
39256;SDS011;67272;48.066;11.038;2023-04-16T06:11:37;0.80;;;0.77;;
39256;SDS011;67272;48.066;11.038;2023-04-16T06:14:04;0.67;;;0.67;;
39256;SDS011;67272;48.066;11.038;2023-04-16T06:16:30;0.80;;;0.80;;
39256;SDS011;67272;48.066;11.038;2023-04-16T06:18:59;0.60;;;0.60;;
39256;SDS011;67272;48.066;11.038;2023-04-16T06:21:28;0.70;;;0.70;;
39256;SDS011;67272;48.066;11.038;2023-04-16T06:23:55;0.77;;;0.70;;
39256;SDS011;67272;48.066;11.038;2023-04-16T06:26:22;0.70;;;0.70;;
39256;SDS011;67272;48.066;11.038;2023-04-16T06:28:48;0.67;;;0.67;;
39256;SDS011;67272;48.066;11.038;2023-04-16T06:31:14;0.60;;;0.60;;
39256;SDS011;67272;48.066;11.038;2023-04-16T06:33:40;0.60;;;0.60;;
39256;SDS011;67272;48.066;11.038;2023-04-16T06:36:16;0.70;;;0.70;;
39256;SDS011;67272;48.066;11.038;2023-04-16T06:38:45;0.60;;;0.60;;
39256;SDS011;67272;48.066;11.038;2023-04-16T06:41:12;0.60;;;0.60;;
39256;SDS011;67272;48.066;11.038;2023-04-16T06:43:38;0.50;;;0.50;;
39256;SDS011;67272;48.066;11.038;2023-04-16T06:46:04;0.60;;;0.60;;
39256;SDS011;67272;48.066;11.038;2023-04-16T06:48:31;0.70;;;0.70;;
39256;SDS011;67272;48.066;11.038;2023-04-16T06:50:57;0.70;;;0.70;;
39256;SDS011;67272;48.066;11.038;2023-04-16T06:53:24;1.00;;;0.83;;
39256;SDS011;67272;48.066;11.038;2023-04-16T06:55:53;0.60;;;0.60;;
39256;SDS011;67272;48.066;11.038;2023-04-16T06:58:22;0.80;;;0.80;;
39256;SDS011;67272;48.066;11.038;2023-04-16T07:00:48;0.60;;;0.60;;
39256;SDS011;67272;48.066;11.038;2023-04-16T07:03:15;0.73;;;0.50;;
39256;SDS011;67272;48.066;11.038;2023-04-16T07:05:41;0.70;;;0.70;;
39256;SDS011;67272;48.066;11.038;2023-04-16T07:08:07;0.50;;;0.50;;
39256;SDS011;67272;48.066;11.038;2023-04-16T07:10:33;0.60;;;0.60;;
39256;SDS011;67272;48.066;11.038;2023-04-16T07:13:00;0.77;;;0.77;;
39256;SDS011;67272;48.066;11.038;2023-04-16T07:15:26;0.50;;;0.50;;
39256;SDS011;67272;48.066;11.038;2023-04-16T07:17:52;0.60;;;0.53;;
39256;SDS011;67272;48.066;11.038;2023-04-16T07:20:19;0.80;;;0.70;;
39256;SDS011;67272;48.066;11.038;2023-04-16T07:22:45;0.50;;;0.50;;
39256;SDS011;67272;48.066;11.038;2023-04-16T07:25:11;0.70;;;0.70;;
39256;SDS011;67272;48.066;11.038;2023-04-16T07:27:37;0.50;;;0.50;;
39256;SDS011;67272;48.066;11.038;2023-04-16T07:30:04;0.60;;;0.60;;
39256;SDS011;67272;48.066;11.038;2023-04-16T07:32:31;0.60;;;0.60;;
39256;SDS011;67272;48.066;11.038;2023-04-16T07:34:57;0.50;;;0.50;;
39256;SDS011;67272;48.066;11.038;2023-04-16T07:37:23;0.60;;;0.60;;
39256;SDS011;67272;48.066;11.038;2023-04-16T07:39:50;0.60;;;0.60;;
39256;SDS011;67272;48.066;11.038;2023-04-16T07:42:19;0.63;;;0.63;;
39256;SDS011;67272;48.066;11.038;2023-04-16T07:44:46;0.73;;;0.73;;
39256;SDS011;67272;48.066;11.038;2023-04-16T07:47:15;0.60;;;0.60;;
39256;SDS011;67272;48.066;11.038;2023-04-16T07:49:41;0.50;;;0.50;;
39256;SDS011;67272;48.066;11.038;2023-04-16T07:52:11;0.70;;;0.70;;
39256;SDS011;67272;48.066;11.038;2023-04-16T07:54:40;0.60;;;0.60;;
39256;SDS011;67272;48.066;11.038;2023-04-16T07:57:07;0.57;;;0.57;;
39256;SDS011;67272;48.066;11.038;2023-04-16T07:59:39;0.60;;;0.60;;
39256;SDS011;67272;48.066;11.038;2023-04-16T08:02:06;0.70;;;0.70;;
39256;SDS011;67272;48.066;11.038;2023-04-16T08:04:33;0.60;;;0.60;;
39256;SDS011;67272;48.066;11.038;2023-04-16T08:06:59;0.73;;;0.63;;
39256;SDS011;67272;48.066;11.038;2023-04-16T08:09:25;0.67;;;0.67;;
39256;SDS011;67272;48.066;11.038;2023-04-16T08:11:55;0.70;;;0.70;;
39256;SDS011;67272;48.066;11.038;2023-04-16T08:14:33;0.60;;;0.60;;
39256;SDS011;67272;48.066;11.038;2023-04-16T08:17:02;0.63;;;0.63;;
39256;SDS011;67272;48.066;11.038;2023-04-16T08:19:29;0.70;;;0.70;;
39256;SDS011;67272;48.066;11.038;2023-04-16T08:21:55;0.70;;;0.70;;
39256;SDS011;67272;48.066;11.038;2023-04-16T08:24:21;0.60;;;0.60;;
39256;SDS011;67272;48.066;11.038;2023-04-16T08:26:47;0.80;;;0.80;;
39256;SDS011;67272;48.066;11.038;2023-04-16T08:29:16;1.00;;;1.00;;
39256;SDS011;67272;48.066;11.038;2023-04-16T08:31:46;1.00;;;0.70;;
39256;SDS011;67272;48.066;11.038;2023-04-16T08:34:12;0.70;;;0.70;;
39256;SDS011;67272;48.066;11.038;2023-04-16T08:36:39;0.70;;;0.70;;
39256;SDS011;67272;48.066;11.038;2023-04-16T08:39:09;0.70;;;0.70;;
39256;SDS011;67272;48.066;11.038;2023-04-16T08:41:35;0.60;;;0.60;;
39256;SDS011;67272;48.066;11.038;2023-04-16T08:46:48;0.60;;;0.60;;
39256;SDS011;67272;48.066;11.038;2023-04-16T08:49:15;0.80;;;0.80;;
39256;SDS011;67272;48.066;11.038;2023-04-16T08:51:42;0.60;;;0.60;;
39256;SDS011;67272;48.066;11.038;2023-04-16T08:54:11;0.70;;;0.70;;
39256;SDS011;67272;48.066;11.038;2023-04-16T08:56:42;0.50;;;0.50;;
39256;SDS011;67272;48.066;11.038;2023-04-16T08:59:09;1.20;;;1.10;;
39256;SDS011;67272;48.066;11.038;2023-04-16T09:01:35;1.10;;;0.90;;
39256;SDS011;67272;48.066;11.038;2023-04-16T09:04:04;0.60;;;0.60;;
39256;SDS011;67272;48.066;11.038;2023-04-16T09:06:32;0.67;;;0.67;;
39256;SDS011;67272;48.066;11.038;2023-04-16T09:08:59;0.90;;;0.90;;
39256;SDS011;67272;48.066;11.038;2023-04-16T09:11:28;0.90;;;0.70;;
39256;SDS011;67272;48.066;11.038;2023-04-16T09:13:54;0.70;;;0.70;;
39256;SDS011;67272;48.066;11.038;2023-04-16T09:16:22;0.50;;;0.50;;
39256;SDS011;67272;48.066;11.038;2023-04-16T09:18:50;0.67;;;0.67;;
39256;SDS011;67272;48.066;11.038;2023-04-16T09:21:20;0.77;;;0.77;;
39256;SDS011;67272;48.066;11.038;2023-04-16T09:23:46;1.53;;;0.70;;
39256;SDS011;67272;48.066;11.038;2023-04-16T09:26:15;0.73;;;0.73;;
39256;SDS011;67272;48.066;11.038;2023-04-16T09:32:02;0.90;;;0.90;;
39256;SDS011;67272;48.066;11.038;2023-04-16T09:34:32;0.70;;;0.70;;
39256;SDS011;67272;48.066;11.038;2023-04-16T09:37:15;0.77;;;0.77;;
39256;SDS011;67272;48.066;11.038;2023-04-16T09:39:51;0.80;;;0.80;;
39256;SDS011;67272;48.066;11.038;2023-04-16T09:42:31;0.77;;;0.77;;
39256;SDS011;67272;48.066;11.038;2023-04-16T09:45:10;0.87;;;0.83;;
39256;SDS011;67272;48.066;11.038;2023-04-16T09:47:43;0.90;;;0.90;;
39256;SDS011;67272;48.066;11.038;2023-04-16T09:50:18;0.67;;;0.67;;
39256;SDS011;67272;48.066;11.038;2023-04-16T09:52:48;0.70;;;0.70;;
39256;SDS011;67272;48.066;11.038;2023-04-16T09:55:15;3.90;;;2.63;;
39256;SDS011;67272;48.066;11.038;2023-04-16T09:57:57;2.60;;;1.93;;
39256;SDS011;67272;48.066;11.038;2023-04-16T10:00:29;1.13;;;1.13;;
39256;SDS011;67272;48.066;11.038;2023-04-16T10:03:02;1.10;;;0.90;;
39256;SDS011;67272;48.066;11.038;2023-04-16T10:05:29;1.00;;;1.00;;
39256;SDS011;67272;48.066;11.038;2023-04-16T10:07:59;1.17;;;1.10;;
39256;SDS011;67272;48.066;11.038;2023-04-16T10:10:29;2.20;;;2.00;;
39256;SDS011;67272;48.066;11.038;2023-04-16T10:15:41;5.73;;;3.47;;
39256;SDS011;67272;48.066;11.038;2023-04-16T10:18:08;2.97;;;2.67;;
39256;SDS011;67272;48.066;11.038;2023-04-16T10:20:35;1.60;;;1.50;;
39256;SDS011;67272;48.066;11.038;2023-04-16T10:23:05;1.00;;;1.00;;
39256;SDS011;67272;48.066;11.038;2023-04-16T10:25:31;1.40;;;1.30;;
39256;SDS011;67272;48.066;11.038;2023-04-16T10:27:58;1.50;;;1.40;;
39256;SDS011;67272;48.066;11.038;2023-04-16T10:30:25;0.80;;;0.80;;
39256;SDS011;67272;48.066;11.038;2023-04-16T10:32:55;0.70;;;0.70;;
39256;SDS011;67272;48.066;11.038;2023-04-16T10:35:21;0.80;;;0.80;;
39256;SDS011;67272;48.066;11.038;2023-04-16T10:37:55;0.93;;;0.93;;
39256;SDS011;67272;48.066;11.038;2023-04-16T10:40:24;1.03;;;1.00;;
39256;SDS011;67272;48.066;11.038;2023-04-16T10:42:58;0.97;;;0.97;;
39256;SDS011;67272;48.066;11.038;2023-04-16T10:45:28;1.03;;;1.03;;
39256;SDS011;67272;48.066;11.038;2023-04-16T10:47:55;1.00;;;1.00;;
39256;SDS011;67272;48.066;11.038;2023-04-16T10:50:22;1.10;;;1.00;;
39256;SDS011;67272;48.066;11.038;2023-04-16T10:53:00;0.80;;;0.80;;
39256;SDS011;67272;48.066;11.038;2023-04-16T10:55:37;1.27;;;0.90;;
39256;SDS011;67272;48.066;11.038;2023-04-16T10:58:25;1.20;;;1.10;;
39256;SDS011;67272;48.066;11.038;2023-04-16T11:00:50;1.10;;;1.00;;
39256;SDS011;67272;48.066;11.038;2023-04-16T11:03:16;0.80;;;0.80;;
39256;SDS011;67272;48.066;11.038;2023-04-16T11:05:46;0.90;;;0.90;;
39256;SDS011;67272;48.066;11.038;2023-04-16T11:08:15;0.97;;;0.97;;
39256;SDS011;67272;48.066;11.038;2023-04-16T11:10:41;0.90;;;0.90;;
39256;SDS011;67272;48.066;11.038;2023-04-16T11:13:07;0.80;;;0.80;;
39256;SDS011;67272;48.066;11.038;2023-04-16T11:15:36;0.80;;;0.80;;
39256;SDS011;67272;48.066;11.038;2023-04-16T11:18:02;0.80;;;0.80;;
39256;SDS011;67272;48.066;11.038;2023-04-16T11:20:31;0.80;;;0.80;;
39256;SDS011;67272;48.066;11.038;2023-04-16T11:22:57;0.97;;;0.90;;
39256;SDS011;67272;48.066;11.038;2023-04-16T11:25:24;0.80;;;0.80;;
39256;SDS011;67272;48.066;11.038;2023-04-16T11:27:54;0.70;;;0.70;;
39256;SDS011;67272;48.066;11.038;2023-04-16T11:30:32;0.80;;;0.80;;
39256;SDS011;67272;48.066;11.038;2023-04-16T11:33:09;0.80;;;0.70;;
39256;SDS011;67272;48.066;11.038;2023-04-16T11:35:38;0.80;;;0.80;;
39256;SDS011;67272;48.066;11.038;2023-04-16T11:38:10;0.80;;;0.80;;
39256;SDS011;67272;48.066;11.038;2023-04-16T11:40:36;0.70;;;0.70;;
39256;SDS011;67272;48.066;11.038;2023-04-16T11:43:11;0.70;;;0.70;;
39256;SDS011;67272;48.066;11.038;2023-04-16T11:45:38;0.67;;;0.67;;
39256;SDS011;67272;48.066;11.038;2023-04-16T11:48:10;1.00;;;1.00;;
39256;SDS011;67272;48.066;11.038;2023-04-16T11:50:36;0.77;;;0.77;;
39256;SDS011;67272;48.066;11.038;2023-04-16T11:53:04;0.77;;;0.77;;
39256;SDS011;67272;48.066;11.038;2023-04-16T11:55:41;0.90;;;0.90;;
39256;SDS011;67272;48.066;11.038;2023-04-16T11:58:12;1.00;;;1.00;;
39256;SDS011;67272;48.066;11.038;2023-04-16T12:00:43;1.30;;;1.20;;
39256;SDS011;67272;48.066;11.038;2023-04-16T12:03:10;1.20;;;1.10;;
39256;SDS011;67272;48.066;11.038;2023-04-16T12:05:37;0.87;;;0.87;;
39256;SDS011;67272;48.066;11.038;2023-04-16T12:08:10;1.03;;;1.00;;
39256;SDS011;67272;48.066;11.038;2023-04-16T12:10:55;1.10;;;0.90;;
39256;SDS011;67272;48.066;11.038;2023-04-16T12:13:22;1.00;;;1.00;;
39256;SDS011;67272;48.066;11.038;2023-04-16T12:15:49;0.90;;;0.90;;
39256;SDS011;67272;48.066;11.038;2023-04-16T12:18:20;0.80;;;0.80;;
39256;SDS011;67272;48.066;11.038;2023-04-16T12:20:47;0.80;;;0.80;;
39256;SDS011;67272;48.066;11.038;2023-04-16T12:23:21;0.90;;;0.90;;
39256;SDS011;67272;48.066;11.038;2023-04-16T12:25:51;0.90;;;0.90;;
39256;SDS011;67272;48.066;11.038;2023-04-16T12:28:27;0.93;;;0.93;;
39256;SDS011;67272;48.066;11.038;2023-04-16T12:30:54;1.00;;;1.00;;
39256;SDS011;67272;48.066;11.038;2023-04-16T12:33:21;0.97;;;0.87;;
39256;SDS011;67272;48.066;11.038;2023-04-16T12:35:47;1.00;;;0.90;;
39256;SDS011;67272;48.066;11.038;2023-04-16T12:38:13;0.93;;;0.90;;
39256;SDS011;67272;48.066;11.038;2023-04-16T12:40:40;0.70;;;0.70;;
39256;SDS011;67272;48.066;11.038;2023-04-16T12:43:06;1.30;;;1.20;;
39256;SDS011;67272;48.066;11.038;2023-04-16T12:45:33;1.00;;;1.00;;
39256;SDS011;67272;48.066;11.038;2023-04-16T12:48:02;1.17;;;0.80;;
39256;SDS011;67272;48.066;11.038;2023-04-16T12:50:28;0.93;;;0.90;;
39256;SDS011;67272;48.066;11.038;2023-04-16T12:52:55;2.47;;;1.30;;
39256;SDS011;67272;48.066;11.038;2023-04-16T12:55:21;1.20;;;1.10;;
39256;SDS011;67272;48.066;11.038;2023-04-16T12:57:47;1.23;;;1.13;;
39256;SDS011;67272;48.066;11.038;2023-04-16T13:00:13;1.20;;;1.10;;
39256;SDS011;67272;48.066;11.038;2023-04-16T13:02:40;1.17;;;1.10;;
39256;SDS011;67272;48.066;11.038;2023-04-16T13:05:06;1.20;;;1.10;;
39256;SDS011;67272;48.066;11.038;2023-04-16T13:07:33;1.20;;;1.10;;
39256;SDS011;67272;48.066;11.038;2023-04-16T13:09:59;1.40;;;1.30;;
39256;SDS011;67272;48.066;11.038;2023-04-16T13:12:25;1.10;;;1.10;;
39256;SDS011;67272;48.066;11.038;2023-04-16T13:14:53;1.23;;;1.10;;
39256;SDS011;67272;48.066;11.038;2023-04-16T13:17:19;1.20;;;1.10;;
39256;SDS011;67272;48.066;11.038;2023-04-16T13:19:45;1.20;;;1.10;;
39256;SDS011;67272;48.066;11.038;2023-04-16T13:22:11;1.37;;;0.90;;
39256;SDS011;67272;48.066;11.038;2023-04-16T13:24:38;1.40;;;1.30;;
39256;SDS011;67272;48.066;11.038;2023-04-16T13:27:04;1.30;;;1.20;;
39256;SDS011;67272;48.066;11.038;2023-04-16T13:29:32;1.10;;;1.00;;
39256;SDS011;67272;48.066;11.038;2023-04-16T13:32:00;1.10;;;1.00;;
39256;SDS011;67272;48.066;11.038;2023-04-16T13:34:27;1.17;;;1.07;;
39256;SDS011;67272;48.066;11.038;2023-04-16T13:37:08;1.40;;;1.27;;
39256;SDS011;67272;48.066;11.038;2023-04-16T13:39:34;1.42;;;1.33;;
39256;SDS011;67272;48.066;11.038;2023-04-16T13:42:01;1.20;;;1.10;;
39256;SDS011;67272;48.066;11.038;2023-04-16T13:44:27;1.30;;;1.20;;
39256;SDS011;67272;48.066;11.038;2023-04-16T13:46:53;1.23;;;1.10;;
39256;SDS011;67272;48.066;11.038;2023-04-16T13:49:23;1.40;;;1.27;;
39256;SDS011;67272;48.066;11.038;2023-04-16T13:51:49;1.43;;;1.20;;
39256;SDS011;67272;48.066;11.038;2023-04-16T13:54:15;1.20;;;1.10;;
39256;SDS011;67272;48.066;11.038;2023-04-16T13:56:42;1.30;;;1.15;;
39256;SDS011;67272;48.066;11.038;2023-04-16T13:59:08;1.40;;;1.30;;
39256;SDS011;67272;48.066;11.038;2023-04-16T14:01:34;1.27;;;1.17;;
39256;SDS011;67272;48.066;11.038;2023-04-16T14:04:00;1.13;;;1.07;;
39256;SDS011;67272;48.066;11.038;2023-04-16T14:06:30;1.30;;;1.13;;
39256;SDS011;67272;48.066;11.038;2023-04-16T14:08:57;1.27;;;1.20;;
39256;SDS011;67272;48.066;11.038;2023-04-16T14:11:23;1.33;;;1.23;;
39256;SDS011;67272;48.066;11.038;2023-04-16T14:13:49;1.55;;;1.45;;
39256;SDS011;67272;48.066;11.038;2023-04-16T14:16:15;1.30;;;1.20;;
39256;SDS011;67272;48.066;11.038;2023-04-16T14:21:13;1.43;;;0.97;;
39256;SDS011;67272;48.066;11.038;2023-04-16T14:23:39;1.23;;;1.13;;
39256;SDS011;67272;48.066;11.038;2023-04-16T14:26:08;1.40;;;1.30;;
39256;SDS011;67272;48.066;11.038;2023-04-16T14:28:34;1.43;;;1.33;;
39256;SDS011;67272;48.066;11.038;2023-04-16T14:31:04;1.30;;;1.20;;
39256;SDS011;67272;48.066;11.038;2023-04-16T14:33:30;1.30;;;1.20;;
39256;SDS011;67272;48.066;11.038;2023-04-16T14:36:01;1.57;;;1.47;;
39256;SDS011;67272;48.066;11.038;2023-04-16T14:38:27;1.00;;;1.00;;
39256;SDS011;67272;48.066;11.038;2023-04-16T14:40:54;1.17;;;1.07;;
39256;SDS011;67272;48.066;11.038;2023-04-16T14:43:24;1.50;;;1.40;;
39256;SDS011;67272;48.066;11.038;2023-04-16T14:45:51;1.30;;;1.20;;
39256;SDS011;67272;48.066;11.038;2023-04-16T14:48:17;1.37;;;1.27;;
39256;SDS011;67272;48.066;11.038;2023-04-16T14:50:44;1.30;;;1.20;;
39256;SDS011;67272;48.066;11.038;2023-04-16T14:53:10;1.10;;;1.00;;
39256;SDS011;67272;48.066;11.038;2023-04-16T14:55:37;1.20;;;1.10;;
39256;SDS011;67272;48.066;11.038;2023-04-16T14:58:09;1.20;;;1.10;;
39256;SDS011;67272;48.066;11.038;2023-04-16T15:00:36;0.97;;;0.97;;